Time;durP1;ratioP1;P1;durP2;ratioP2;P2;SDS_P1;SDS_P2;PMS_P1;PMS_P2;Temp;Humidity;BMP_temperature;BMP_pressure;BME280_temperature;BME280_humidity;BME280_pressure;Samples;Min_cycle;Max_cycle;Signal;HPM_P1;HPM_P2
2022/10/19 00:00:25;;;;;;;5.10;2.27;;;11.60;99.90;;;;;;5011646;28;20203;-73
2022/10/19 00:02:50;;;;;;;5.10;2.90;;;11.60;99.90;;;;;;5011376;28;20905;-72
2022/10/19 00:05:16;;;;;;;8.87;2.80;;;11.60;99.90;;;;;;5011689;28;20251;-73
2022/10/19 00:07:42;;;;;;;11.43;3.13;;;11.60;99.90;;;;;;5012430;28;20215;-73
2022/10/19 00:10:08;;;;;;;5.27;2.57;;;11.60;99.90;;;;;;5012320;28;20218;-72
2022/10/19 00:12:33;;;;;;;4.10;2.30;;;11.60;99.90;;;;;;5013007;28;20662;-73
2022/10/19 00:14:59;;;;;;;4.93;2.10;;;11.60;99.90;;;;;;5013872;28;20422;-73
2022/10/19 00:17:24;;;;;;;2.00;1.80;;;11.60;99.90;;;;;;5024924;28;20199;-73
2022/10/19 00:19:50;;;;;;;4.57;2.43;;;11.60;99.90;;;;;;5013001;28;20180;-73
2022/10/19 00:22:15;;;;;;;3.20;2.00;;;11.60;99.90;;;;;;5012636;28;20255;-73
2022/10/19 00:24:41;;;;;;;5.53;2.20;;;11.60;99.90;;;;;;5010440;28;20682;-72
2022/10/19 00:27:07;;;;;;;4.20;2.33;;;11.60;99.90;;;;;;5012909;28;20701;-72
2022/10/19 00:29:32;;;;;;;3.37;1.83;;;11.60;99.90;;;;;;5013171;28;20631;-72
2022/10/19 00:31:58;;;;;;;4.00;1.97;;;11.60;99.90;;;;;;5011606;28;20608;-72
2022/10/19 00:34:24;;;;;;;3.20;1.60;;;11.60;99.90;;;;;;5012664;28;20548;-73
2022/10/19 00:36:49;;;;;;;5.27;2.00;;;11.60;99.90;;;;;;5012471;28;20192;-72
2022/10/19 00:39:16;;;;;;;3.73;1.57;;;11.60;99.90;;;;;;5026258;28;20230;-73
2022/10/19 00:41:44;;;;;;;5.53;1.37;;;11.60;99.90;;;;;;5031690;28;20202;-71
2022/10/19 00:44:12;;;;;;;3.13;1.80;;;11.70;99.90;;;;;;5030819;28;20414;-73
2022/10/19 00:46:40;;;;;;;5.67;1.50;;;11.70;99.90;;;;;;5027156;28;20748;-73
2022/10/19 00:49:07;;;;;;;2.17;1.97;;;11.70;99.90;;;;;;5011585;28;20411;-73
2022/10/19 00:51:38;;;;;;;4.73;3.50;;;11.70;99.90;;;;;;5012741;28;20454;-73
2022/10/19 00:54:05;;;;;;;3.67;1.97;;;11.70;99.90;;;;;;5015648;28;20431;-73
2022/10/19 00:56:32;;;;;;;2.13;1.77;;;11.70;99.90;;;;;;5031100;28;20429;-73
2022/10/19 00:58:58;;;;;;;2.83;2.00;;;11.70;99.90;;;;;;5030513;28;20494;-73
2022/10/19 01:01:25;;;;;;;2.20;1.70;;;11.70;99.90;;;;;;5031003;28;20501;-72
2022/10/19 01:03:51;;;;;;;3.30;1.67;;;11.70;99.90;;;;;;5031884;28;20551;-73
2022/10/19 01:06:18;;;;;;;2.57;1.43;;;11.70;99.90;;;;;;5054141;22;20462;-68
2022/10/19 01:08:44;;;;;;;7.30;2.20;;;11.70;99.90;;;;;;5027011;28;20198;-69
2022/10/19 01:11:51;;;;;;;5.17;1.60;;;11.70;99.90;;;;;;5026547;28;20472;-68
2022/10/19 01:14:44;;;;;;;6.70;2.07;;;11.70;99.90;;;;;;5035626;28;20190;-67
2022/10/19 01:17:40;;;;;;;2.30;1.30;;;11.70;99.90;;;;;;5010918;28;20521;-68
2022/10/19 01:20:26;;;;;;;1.60;1.27;;;11.70;99.90;;;;;;5016463;28;20949;-67
2022/10/19 01:23:11;;;;;;;1.83;1.40;;;11.70;99.90;;;;;;5026608;28;20532;-68
2022/10/19 01:25:50;;;;;;;2.03;1.27;;;11.70;99.90;;;;;;5029686;28;20425;-68
2022/10/19 01:28:28;;;;;;;3.67;1.63;;;11.70;99.90;;;;;;5029745;28;20419;-68
2022/10/19 01:31:28;;;;;;;2.93;1.57;;;11.70;99.90;;;;;;5032936;28;20461;-68
2022/10/19 01:34:08;;;;;;;3.87;1.70;;;11.80;99.90;;;;;;5030802;28;20453;-68
2022/10/19 01:36:43;;;;;;;4.10;1.97;;;11.80;99.90;;;;;;5011958;28;20434;-67
2022/10/19 01:39:21;;;;;;;3.47;1.33;;;11.80;99.90;;;;;;5028898;28;20409;-68
2022/10/19 01:42:20;;;;;;;2.87;1.17;;;11.80;99.90;;;;;;5030024;28;20406;-69
2022/10/19 01:44:59;;;;;;;2.10;1.40;;;11.70;99.90;;;;;;5030683;28;20479;-70
2022/10/19 01:47:33;;;;;;;3.97;2.80;;;11.70;99.90;;;;;;5038993;28;20449;-68
2022/10/19 01:50:14;;;;;;;1.93;1.10;;;11.70;99.90;;;;;;5038317;28;20423;-68
2022/10/19 01:52:41;;;;;;;4.17;1.20;;;11.80;99.90;;;;;;5019021;28;20402;-68
2022/10/19 01:55:11;;;;;;;1.53;0.93;;;11.80;99.90;;;;;;5029352;28;20402;-69
2022/10/19 01:57:42;;;;;;;3.13;1.10;;;11.80;99.90;;;;;;5030255;28;20966;-69
2022/10/19 02:00:11;;;;;;;1.67;1.47;;;11.80;99.90;;;;;;5030158;28;20421;-68
2022/10/19 02:02:40;;;;;;;2.00;1.03;;;11.80;99.90;;;;;;5029655;28;20770;-67
2022/10/19 02:05:09;;;;;;;2.60;2.07;;;11.80;99.90;;;;;;5044136;28;20923;-68
2022/10/19 02:07:36;;;;;;;4.73;1.80;;;11.80;99.90;;;;;;5049116;28;20441;-68
2022/10/19 02:10:02;;;;;;;6.10;1.90;;;11.80;99.90;;;;;;5049378;28;20405;-68
2022/10/19 02:12:32;;;;;;;6.27;1.90;;;11.80;99.90;;;;;;5049528;28;20421;-68
2022/10/19 02:15:01;;;;;;;4.03;2.17;;;11.80;99.90;;;;;;5049419;28;20405;-69
2022/10/19 02:17:32;;;;;;;2.23;2.13;;;11.80;99.90;;;;;;5049363;28;20501;-68
2022/10/19 02:19:59;;;;;;;6.27;1.90;;;11.80;99.90;;;;;;5044919;28;20442;-68
2022/10/19 02:22:24;;;;;;;3.70;1.63;;;11.80;99.90;;;;;;5029543;28;20428;-67
2022/10/19 02:24:50;;;;;;;2.07;1.20;;;11.70;99.90;;;;;;5051062;28;20401;-68
2022/10/19 02:27:16;;;;;;;2.03;1.83;;;11.70;99.90;;;;;;5035405;28;20270;-68
2022/10/19 02:29:42;;;;;;;3.10;1.50;;;11.70;99.90;;;;;;5021515;28;20172;-67
2022/10/19 02:32:08;;;;;;;3.47;1.80;;;11.70;99.90;;;;;;5028516;28;20453;-69
2022/10/19 02:34:35;;;;;;;3.40;1.67;;;11.70;99.90;;;;;;5033899;28;20167;-67
2022/10/19 02:37:01;;;;;;;5.73;1.97;;;11.70;99.90;;;;;;5048712;28;20584;-67
2022/10/19 02:39:26;;;;;;;2.40;1.30;;;11.70;99.90;;;;;;5045483;28;20872;-68
2022/10/19 02:42:05;;;;;;;4.17;1.50;;;11.60;99.90;;;;;;5017500;28;20549;-67
2022/10/19 02:44:44;;;;;;;5.77;1.37;;;11.60;99.90;;;;;;5010035;28;20168;-68
2022/10/19 02:47:14;;;;;;;2.53;2.33;;;11.60;99.90;;;;;;5012307;28;20530;-68
2022/10/19 02:49:41;;;;;;;5.47;1.57;;;11.60;99.90;;;;;;5031566;28;20512;-68
2022/10/19 02:52:09;;;;;;;2.30;1.30;;;11.60;99.90;;;;;;5051847;28;20499;-67
2022/10/19 02:54:35;;;;;;;3.20;1.40;;;11.60;99.90;;;;;;5054192;28;21119;-67
2022/10/19 02:57:13;;;;;;;1.50;1.40;;;11.60;99.90;;;;;;5053094;28;20523;-70
2022/10/19 02:59:39;;;;;;;3.60;1.30;;;11.60;99.90;;;;;;5030242;28;20414;-69
2022/10/19 03:02:04;;;;;;;4.77;1.70;;;11.60;99.90;;;;;;5033477;28;20513;-68
2022/10/19 03:04:30;;;;;;;5.13;1.40;;;11.60;99.90;;;;;;5034211;28;20614;-67
2022/10/19 03:06:56;;;;;;;4.77;1.80;;;11.50;99.90;;;;;;5033703;28;20243;-68
2022/10/19 03:09:21;;;;;;;3.00;1.50;;;11.50;99.90;;;;;;5033777;28;20305;-68
2022/10/19 03:11:47;;;;;;;4.00;2.17;;;11.50;99.90;;;;;;5034037;28;20286;-68
2022/10/19 03:14:12;;;;;;;5.90;1.60;;;11.50;99.90;;;;;;5034110;28;20171;-67
2022/10/19 03:16:38;;;;;;;4.50;1.80;;;11.50;99.90;;;;;;5027508;28;20211;-68
2022/10/19 03:19:03;;;;;;;2.70;1.60;;;11.50;99.90;;;;;;5032965;28;20164;-67
2022/10/19 03:21:29;;;;;;;7.83;1.80;;;11.50;99.90;;;;;;5033395;28;20176;-68
2022/10/19 03:23:54;;;;;;;7.00;2.13;;;11.50;99.90;;;;;;5032961;28;20184;-68
2022/10/19 03:26:20;;;;;;;3.87;1.73;;;11.50;99.90;;;;;;5043132;28;20177;-69
2022/10/19 03:28:45;;;;;;;5.00;1.30;;;11.50;99.90;;;;;;5053903;28;20220;-68
2022/10/19 03:31:11;;;;;;;6.27;1.50;;;11.50;99.90;;;;;;5053582;28;20198;-68
2022/10/19 03:33:37;;;;;;;2.07;1.10;;;11.40;99.90;;;;;;5044127;28;20179;-69
2022/10/19 03:36:22;;;;;;;4.03;1.10;;;11.40;99.90;;;;;;5032555;28;20176;-68
2022/10/19 03:38:52;;;;;;;1.50;1.13;;;11.50;99.90;;;;;;5032955;28;20164;-68
2022/10/19 03:41:19;;;;;;;1.63;1.00;;;11.50;99.90;;;;;;5033275;28;20406;-68
2022/10/19 03:43:45;;;;;;;2.73;1.00;;;11.40;99.90;;;;;;5033865;28;20777;-67
2022/10/19 03:46:10;;;;;;;4.30;0.97;;;11.40;99.90;;;;;;5033014;28;20402;-68
2022/10/19 03:48:36;;;;;;;2.70;1.03;;;11.40;99.90;;;;;;5033609;28;20199;-68
2022/10/19 03:51:11;;;;;;;1.63;0.80;;;11.40;99.90;;;;;;5038051;28;20248;-67
2022/10/19 03:53:37;;;;;;;1.27;1.00;;;11.40;99.90;;;;;;5052255;28;20220;-67
2022/10/19 03:56:04;;;;;;;2.93;1.30;;;11.40;99.90;;;;;;5051083;28;20421;-68
2022/10/19 03:58:32;;;;;;;1.50;1.10;;;11.40;99.90;;;;;;5052764;28;20751;-68
2022/10/19 04:00:57;;;;;;;1.93;0.90;;;11.40;99.90;;;;;;5052613;28;20408;-68
2022/10/19 04:03:23;;;;;;;3.53;1.03;;;11.40;99.90;;;;;;5052293;28;20421;-68
2022/10/19 04:05:49;;;;;;;5.70;1.30;;;11.40;99.90;;;;;;5052661;28;20209;-68
2022/10/19 04:08:14;;;;;;;2.30;1.23;;;11.40;99.90;;;;;;5049969;28;20219;-68
2022/10/19 04:11:01;;;;;;;2.73;1.00;;;11.40;99.90;;;;;;5035150;28;20286;-69
2022/10/19 04:13:28;;;;;;;1.20;1.10;;;11.40;99.90;;;;;;5033467;28;20167;-68
2022/10/19 04:15:54;;;;;;;2.70;1.30;;;11.40;99.90;;;;;;5032638;28;20407;-69
2022/10/19 04:18:19;;;;;;;2.10;1.00;;;11.40;99.90;;;;;;5032290;28;20530;-69
2022/10/19 04:20:45;;;;;;;4.27;1.23;;;11.40;99.90;;;;;;5032974;28;20175;-68
2022/10/19 04:23:10;;;;;;;4.83;1.40;;;11.30;99.90;;;;;;5032703;28;20229;-67
2022/10/19 04:25:36;;;;;;;4.70;1.43;;;11.30;99.90;;;;;;5033115;28;20184;-68
2022/10/19 04:28:01;;;;;;;4.30;1.40;;;11.40;99.90;;;;;;5041785;28;20191;-68
2022/10/19 04:30:27;;;;;;;4.20;1.30;;;11.30;99.90;;;;;;5051762;28;20728;-67
2022/10/19 04:32:52;;;;;;;3.93;1.20;;;11.30;99.90;;;;;;5052354;28;20167;-68
2022/10/19 04:35:18;;;;;;;4.50;1.70;;;11.30;99.90;;;;;;5052369;28;20694;-69
2022/10/19 04:37:43;;;;;;;4.00;1.33;;;11.30;99.90;;;;;;5052443;28;20692;-69
2022/10/19 04:40:10;;;;;;;1.43;1.20;;;11.30;99.90;;;;;;5052264;28;20246;-68
2022/10/19 04:42:36;;;;;;;2.60;1.20;;;11.30;99.90;;;;;;5035789;28;20173;-68
2022/10/19 04:45:01;;;;;;;5.23;1.73;;;11.30;99.90;;;;;;5040777;28;20417;-68
2022/10/19 04:47:28;;;;;;;4.80;1.17;;;11.30;99.90;;;;;;5025138;28;20664;-69
2022/10/19 04:49:54;;;;;;;1.27;1.00;;;11.30;99.90;;;;;;5050816;28;20189;-68
2022/10/19 04:52:19;;;;;;;4.70;1.30;;;11.30;99.90;;;;;;5052029;28;21044;-68
2022/10/19 04:54:45;;;;;;;2.17;0.97;;;11.30;99.90;;;;;;5052098;28;20255;-69
2022/10/19 04:57:11;;;;;;;3.03;1.80;;;11.30;99.90;;;;;;5052073;28;20195;-69
2022/10/19 04:59:36;;;;;;;2.30;1.13;;;11.30;99.90;;;;;;5052117;28;20414;-68
2022/10/19 05:02:02;;;;;;;2.83;1.07;;;11.30;99.90;;;;;;5052123;28;20174;-68
2022/10/19 05:04:28;;;;;;;5.23;0.97;;;11.30;99.90;;;;;;5050525;28;20258;-69
2022/10/19 05:06:56;;;;;;;1.80;1.17;;;11.30;99.90;;;;;;5034818;28;20625;-67
2022/10/19 05:09:25;;;;;;;3.30;1.50;;;11.30;99.90;;;;;;5050729;28;20505;-68
2022/10/19 05:11:51;;;;;;;2.27;1.10;;;11.30;99.90;;;;;;5051470;28;20445;-67
2022/10/19 05:14:16;;;;;;;2.30;1.13;;;11.30;99.90;;;;;;5052320;28;20548;-67
2022/10/19 05:16:42;;;;;;;1.67;1.00;;;11.30;99.90;;;;;;5052115;28;20198;-68
2022/10/19 05:19:13;;;;;;;1.20;1.10;;;11.30;99.90;;;;;;5050278;28;20175;-68
2022/10/19 05:21:39;;;;;;;1.50;0.90;;;11.30;99.90;;;;;;5030857;28;20175;-69
2022/10/19 05:24:05;;;;;;;3.83;0.90;;;11.30;99.90;;;;;;5040117;28;20409;-69
2022/10/19 05:26:30;;;;;;;2.17;1.10;;;11.30;99.90;;;;;;5051128;28;20587;-70
2022/10/19 05:29:00;;;;;;;4.10;1.33;;;11.10;99.90;;;;;;5055001;28;20182;-68
2022/10/19 05:31:28;;;;;;;1.00;0.90;;;11.10;99.90;;;;;;5054756;28;20191;-69
2022/10/19 05:33:55;;;;;;;4.00;1.40;;;11.00;99.90;;;;;;5035508;28;20497;-68
2022/10/19 05:36:31;;;;;;;1.90;1.00;;;11.00;99.90;;;;;;5051596;28;20509;-70
2022/10/19 05:38:57;;;;;;;4.17;2.97;;;10.90;99.90;;;;;;5051847;28;20398;-70
2022/10/19 05:41:24;;;;;;;1.17;0.80;;;10.90;99.90;;;;;;5052923;28;20405;-75
2022/10/19 05:43:55;;;;;;;2.70;2.10;;;10.80;99.90;;;;;;5051553;28;20413;-70
2022/10/19 05:46:21;;;;;;;4.10;1.50;;;10.80;99.90;;;;;;5034816;28;20422;-70
2022/10/19 05:48:47;;;;;;;4.60;1.63;;;10.70;99.90;;;;;;5036132;28;20798;-70
2022/10/19 05:51:15;;;;;;;4.23;1.70;;;10.80;99.90;;;;;;5040831;28;20449;-70
2022/10/19 05:53:41;;;;;;;2.10;1.03;;;10.80;99.90;;;;;;5045390;28;20201;-71
2022/10/19 05:56:14;;;;;;;2.93;1.50;;;10.80;99.90;;;;;;5048099;28;20438;-70
2022/10/19 05:58:40;;;;;;;2.43;1.40;;;10.80;99.90;;;;;;5016301;28;20821;-70
2022/10/19 06:01:08;;;;;;;5.63;1.10;;;10.90;99.90;;;;;;5040305;28;20500;-70
2022/10/19 06:03:34;;;;;;;6.83;1.30;;;10.90;99.90;;;;;;5051514;28;20174;-70
2022/10/19 06:06:08;;;;;;;1.57;1.47;;;10.90;99.90;;;;;;5050176;28;20519;-70
2022/10/19 06:08:35;;;;;;;4.10;1.33;;;10.90;99.90;;;;;;5018907;28;20527;-69
2022/10/19 06:11:37;;;;;;;3.33;1.27;;;11.00;99.90;;;;;;5034255;28;20511;-71
2022/10/19 06:14:10;;;;;;;3.30;1.40;;;11.00;99.90;;;;;;5049860;28;20409;-70
2022/10/19 06:16:36;;;;;;;2.57;0.93;;;11.10;99.90;;;;;;5018287;28;20826;-70
2022/10/19 06:19:03;;;;;;;1.93;1.83;;;11.10;99.90;;;;;;5052110;28;20496;-68
2022/10/19 06:21:31;;;;;;;2.50;0.90;;;11.10;99.90;;;;;;5050003;28;20475;-70
2022/10/19 06:24:02;;;;;;;1.47;0.97;;;11.10;99.90;;;;;;5043659;28;20832;-68
2022/10/19 06:26:30;;;;;;;2.10;0.93;;;11.20;99.90;;;;;;5053379;28;20433;-69
2022/10/19 06:28:59;;;;;;;2.80;1.17;;;11.20;99.90;;;;;;5055580;28;20408;-69
2022/10/19 06:31:25;;;;;;;1.10;0.90;;;11.30;99.90;;;;;;5055450;28;20449;-69
2022/10/19 06:33:51;;;;;;;4.10;2.30;;;11.20;99.90;;;;;;5053527;28;20455;-67
2022/10/19 06:36:20;;;;;;;1.67;1.40;;;11.30;99.90;;;;;;5046877;28;20414;-68
2022/10/19 06:38:46;;;;;;;2.67;1.47;;;11.30;99.90;;;;;;5019773;28;20172;-69
2022/10/19 06:41:15;;;;;;;3.90;1.13;;;11.30;99.90;;;;;;5026532;28;20433;-69
2022/10/19 06:43:42;;;;;;;5.43;1.10;;;11.30;99.90;;;;;;5043912;28;20443;-70
2022/10/19 06:46:13;;;;;;;1.50;0.97;;;11.30;99.90;;;;;;5051645;28;20856;-69
2022/10/19 06:48:40;;;;;;;5.13;1.50;;;11.40;99.90;;;;;;5021010;28;20444;-70
2022/10/19 06:51:06;;;;;;;2.20;1.20;;;11.60;99.90;;;;;;5021372;28;21006;-70
2022/10/19 06:53:33;;;;;;;3.03;1.20;;;11.60;99.90;;;;;;5043270;28;20421;-69
2022/10/19 06:56:03;;;;;;;6.60;1.00;;;11.40;99.90;;;;;;5025744;28;20414;-71
2022/10/19 06:58:30;;;;;;;3.10;1.50;;;11.40;99.90;;;;;;5042447;28;20923;-69
2022/10/19 07:00:59;;;;;;;1.43;1.33;;;11.40;99.90;;;;;;5053803;28;20424;-69
2022/10/19 07:03:27;;;;;;;1.60;1.00;;;11.50;99.90;;;;;;5054960;28;20465;-70
2022/10/19 07:05:58;;;;;;;1.87;1.00;;;11.50;99.90;;;;;;5053510;28;20453;-70
2022/10/19 07:08:24;;;;;;;1.33;0.80;;;11.60;99.90;;;;;;5053789;28;20465;-68
2022/10/19 07:10:58;;;;;;;1.80;1.13;;;11.70;99.90;;;;;;5055392;28;20545;-68
2022/10/19 07:13:26;;;;;;;5.33;1.60;;;11.60;99.90;;;;;;5054948;28;20463;-69
2022/10/19 07:16:05;;;;;;;1.00;0.90;;;11.60;99.90;;;;;;5056717;28;20409;-70
2022/10/19 07:18:35;;;;;;;1.30;1.07;;;11.70;99.90;;;;;;5045784;28;20471;-69
2022/10/19 07:21:03;;;;;;;3.60;1.63;;;11.80;99.90;;;;;;5023600;28;20512;-68
2022/10/19 07:23:30;;;;;;;2.50;1.27;;;11.80;99.90;;;;;;5049898;28;20500;-68
2022/10/19 07:26:04;;;;;;;5.50;1.10;;;11.90;99.90;;;;;;5051042;28;20421;-68
2022/10/19 07:28:30;;;;;;;2.10;0.80;;;12.00;99.90;;;;;;5054066;28;20429;-68
2022/10/19 07:30:55;;;;;;;2.47;1.40;;;12.20;99.90;;;;;;5054658;28;20457;-69
2022/10/19 07:33:22;;;;;;;3.33;1.30;;;12.20;99.90;;;;;;5054289;28;20181;-69
2022/10/19 07:35:51;;;;;;;2.20;0.80;;;12.10;99.90;;;;;;5054401;28;20195;-68
2022/10/19 07:38:19;;;;;;;2.40;1.20;;;12.40;99.90;;;;;;5053991;28;20440;-68
2022/10/19 07:40:44;;;;;;;4.30;0.87;;;12.40;99.90;;;;;;5053211;28;20930;-69
2022/10/19 07:43:10;;;;;;;4.63;1.20;;;12.50;99.90;;;;;;5054158;28;20413;-68
2022/10/19 07:45:35;;;;;;;1.57;0.90;;;12.60;99.90;;;;;;5035260;28;20175;-70
2022/10/19 07:48:01;;;;;;;2.60;1.27;;;12.40;99.90;;;;;;5035686;28;20195;-70
2022/10/19 07:50:27;;;;;;;3.10;0.90;;;12.70;99.90;;;;;;5038820;28;20310;-69
2022/10/19 07:52:54;;;;;;;2.30;0.80;;;12.70;99.90;;;;;;5016457;28;20222;-68
2022/10/19 07:55:20;;;;;;;2.20;1.13;;;12.80;99.90;;;;;;5026213;28;20175;-69
2022/10/19 07:57:47;;;;;;;1.60;0.80;;;12.70;99.90;;;;;;5035580;28;20449;-68
2022/10/19 08:00:14;;;;;;;1.50;0.80;;;12.70;99.90;;;;;;5032467;28;20273;-68
2022/10/19 08:02:39;;;;;;;4.77;1.10;;;13.00;99.90;;;;;;5032675;28;20501;-68
2022/10/19 08:05:06;;;;;;;1.87;0.70;;;12.80;99.90;;;;;;5017245;28;20548;-68
2022/10/19 08:07:34;;;;;;;3.17;1.10;;;12.70;99.90;;;;;;5032242;28;20700;-68
2022/10/19 08:10:00;;;;;;;4.80;1.00;;;12.80;99.90;;;;;;5035035;28;20414;-68
2022/10/19 08:12:26;;;;;;;2.07;1.20;;;12.80;99.90;;;;;;5037914;28;20816;-68
2022/10/19 08:14:53;;;;;;;2.57;1.13;;;13.00;99.90;;;;;;5033328;28;20191;-69
2022/10/19 08:17:19;;;;;;;4.20;1.47;;;12.90;99.90;;;;;;5042728;28;20430;-69
2022/10/19 08:19:45;;;;;;;2.20;0.97;;;12.80;99.90;;;;;;5016082;28;20924;-67
2022/10/19 08:22:17;;;;;;;3.70;1.43;;;12.70;99.90;;;;;;5034698;28;20187;-68
2022/10/19 08:24:42;;;;;;;2.83;1.10;;;12.80;99.90;;;;;;5038023;28;20426;-67
2022/10/19 08:27:11;;;;;;;5.77;1.27;;;12.90;99.90;;;;;;5047119;28;20491;-68
2022/10/19 08:29:36;;;;;;;3.70;1.20;;;13.00;99.90;;;;;;5050583;28;20182;-68
2022/10/19 08:32:02;;;;;;;1.80;1.20;;;12.90;99.90;;;;;;5048167;28;20453;-69
2022/10/19 08:34:27;;;;;;;2.53;1.70;;;13.30;99.90;;;;;;5042849;28;20186;-69
2022/10/19 08:36:56;;;;;;;1.13;1.03;;;13.40;99.90;;;;;;5036489;28;20665;-69
2022/10/19 08:39:23;;;;;;;1.93;1.03;;;13.70;99.90;;;;;;5042296;28;20244;-69
2022/10/19 08:42:13;;;;;;;2.23;1.80;;;13.30;99.90;;;;;;5047167;28;20771;-70
2022/10/19 08:44:53;;;;;;;3.20;1.00;;;13.30;99.90;;;;;;5017127;28;20786;-70
2022/10/19 08:47:34;;;;;;;5.40;1.30;;;13.70;99.90;;;;;;5035009;28;20480;-71
2022/10/19 08:50:00;;;;;;;1.57;1.30;;;13.60;99.90;;;;;;5036829;28;20472;-71
2022/10/19 08:52:34;;;;;;;1.83;0.90;;;13.50;99.90;;;;;;5041451;28;20508;-71
2022/10/19 08:55:04;;;;;;;1.20;0.80;;;14.20;99.90;;;;;;5044035;28;20264;-71
2022/10/19 08:57:58;;;;;;;3.73;1.50;;;14.30;99.90;;;;;;5046339;28;20445;-71
2022/10/19 09:00:57;;;;;;;2.30;1.00;;;14.40;99.90;;;;;;5039584;28;20411;-71
2022/10/19 09:03:43;;;;;;;2.03;1.10;;;14.20;99.90;;;;;;5040902;28;20420;-70
2022/10/19 09:06:49;;;;;;;0.70;0.70;;;14.20;99.90;;;;;;5031534;28;20427;-68
2022/10/19 09:09:17;;;;;;;4.53;0.87;;;14.30;99.90;;;;;;5036728;28;20501;-68
2022/10/19 09:11:46;;;;;;;4.90;1.20;;;14.30;99.90;;;;;;5048998;23;20496;-73
2022/10/19 09:14:19;;;;;;;2.00;1.00;;;14.30;99.90;;;;;;5017314;28;20420;-73
2022/10/19 09:16:45;;;;;;;1.13;1.00;;;14.30;99.90;;;;;;5015091;28;20427;-73
2022/10/19 09:19:28;;;;;;;3.67;1.60;;;14.50;99.90;;;;;;5018001;28;20424;-72
2022/10/19 09:22:05;;;;;;;2.13;0.90;;;14.40;99.90;;;;;;5016414;28;20489;-73
2022/10/19 09:24:42;;;;;;;2.93;1.10;;;14.30;99.90;;;;;;5016184;28;20423;-71
2022/10/19 09:27:19;;;;;;;4.37;1.10;;;14.10;99.90;;;;;;5020866;28;20855;-73
2022/10/19 09:29:52;;;;;;;1.13;0.90;;;14.20;99.90;;;;;;5029654;28;20411;-75
2022/10/19 09:32:28;;;;;;;3.60;0.97;;;14.40;99.90;;;;;;5029335;28;20463;-73
2022/10/19 09:34:57;;;;;;;2.60;0.90;;;14.50;99.90;;;;;;5015086;28;20405;-73
2022/10/19 09:37:23;;;;;;;2.93;1.30;;;14.40;99.90;;;;;;5013756;28;20416;-73
2022/10/19 09:39:49;;;;;;;2.97;0.97;;;14.50;99.90;;;;;;5021150;28;20503;-73
2022/10/19 09:42:31;;;;;;;4.97;0.70;;;14.40;99.90;;;;;;5024505;28;20439;-74
2022/10/19 09:45:11;;;;;;;1.20;0.90;;;14.30;99.90;;;;;;5032918;28;20407;-73
2022/10/19 09:47:39;;;;;;;1.80;0.83;;;14.30;99.90;;;;;;5018357;28;20454;-74
2022/10/19 09:50:12;;;;;;;2.17;0.90;;;14.40;99.90;;;;;;5009623;28;20458;-74
2022/10/19 09:52:40;;;;;;;1.50;0.90;;;14.70;99.90;;;;;;5003344;28;20979;-73
2022/10/19 09:55:21;;;;;;;1.10;0.77;;;14.90;99.90;;;;;;5025703;28;20484;-73
2022/10/19 09:58:15;;;;;;;2.00;0.83;;;14.60;99.90;;;;;;5016347;28;20475;-74
2022/10/19 10:00:43;;;;;;;3.93;1.00;;;14.70;99.90;;;;;;5016409;28;20433;-73
2022/10/19 10:03:42;;;;;;;0.70;0.70;;;14.40;99.90;;;;;;5005040;28;20838;-71
2022/10/19 10:06:16;;;;;;;3.10;0.77;;;14.40;99.90;;;;;;4998137;28;20410;-66
2022/10/19 10:08:46;;;;;;;1.37;0.70;;;14.30;99.90;;;;;;5013869;28;20772;-73
2022/10/19 10:11:25;;;;;;;3.33;1.00;;;14.40;99.90;;;;;;5012638;28;20586;-72
2022/10/19 10:13:53;;;;;;;1.13;0.70;;;14.70;99.90;;;;;;5010934;28;20418;-72
2022/10/19 10:16:32;;;;;;;1.93;0.83;;;14.60;99.90;;;;;;5013755;28;20466;-72
2022/10/19 10:19:02;;;;;;;2.20;0.80;;;14.30;99.90;;;;;;5015502;28;20437;-72
2022/10/19 10:21:35;;;;;;;1.80;0.80;;;14.30;99.90;;;;;;5016826;28;20470;-72
2022/10/19 10:24:10;;;;;;;0.80;0.60;;;14.20;99.90;;;;;;5034481;28;20433;-72
2022/10/19 10:27:00;;;;;;;1.37;0.80;;;14.30;99.90;;;;;;5030853;28;20432;-69
2022/10/19 10:29:27;;;;;;;1.30;0.80;;;14.10;99.90;;;;;;5012716;28;20489;-71
2022/10/19 10:32:01;;;;;;;0.70;0.60;;;14.10;99.90;;;;;;5035229;28;20481;-72
2022/10/19 10:35:02;;;;;;;1.20;0.70;;;14.10;99.90;;;;;;5025984;28;20405;-73
2022/10/19 10:37:41;;;;;;;0.77;0.60;;;14.00;99.90;;;;;;5006353;28;20925;-72
2022/10/19 10:40:28;;;;;;;2.97;0.80;;;14.00;99.90;;;;;;5032222;28;21147;-72
2022/10/19 10:43:00;;;;;;;1.13;0.70;;;14.20;99.90;;;;;;5031913;28;20429;-72
2022/10/19 10:45:32;;;;;;;0.93;0.70;;;14.40;99.90;;;;;;5020951;28;20905;-74
2022/10/19 10:48:11;;;;;;;0.87;0.73;;;14.50;99.90;;;;;;5031523;28;20414;-72
2022/10/19 10:50:37;;;;;;;1.67;0.77;;;14.40;99.90;;;;;;5031009;28;20410;-72
2022/10/19 10:53:29;;;;;;;0.77;0.60;;;14.60;99.90;;;;;;5031518;28;20407;-73
2022/10/19 10:55:55;;;;;;;0.93;0.70;;;14.70;99.90;;;;;;5001204;28;20486;-73
2022/10/19 10:58:46;;;;;;;1.00;0.80;;;14.90;99.90;;;;;;5031255;28;20545;-74
2022/10/19 11:01:20;;;;;;;0.80;0.70;;;15.00;99.90;;;;;;5030004;28;20937;-73
2022/10/19 11:03:55;;;;;;;1.53;0.60;;;14.90;99.90;;;;;;5031091;28;20501;-72
2022/10/19 11:06:24;;;;;;;0.90;0.70;;;15.10;99.90;;;;;;5028866;28;20418;-73
2022/10/19 11:09:30;;;;;;;2.00;0.80;;;15.30;99.90;;;;;;5026348;28;20415;-72
2022/10/19 11:12:01;;;;;;;0.70;0.70;;;15.50;99.90;;;;;;5004279;28;20549;-72
2022/10/19 11:14:44;;;;;;;1.43;0.90;;;15.40;99.90;;;;;;5034487;28;20410;-72
2022/10/19 11:17:31;;;;;;;4.30;0.90;;;15.50;99.90;;;;;;5034317;28;20414;-71
2022/10/19 11:19:57;;;;;;;1.17;0.73;;;15.50;99.90;;;;;;5003394;28;20407;-73
2022/10/19 11:22:35;;;;;;;2.00;0.80;;;15.70;99.90;;;;;;5021440;28;20949;-71
2022/10/19 11:25:04;;;;;;;0.80;0.67;;;15.50;99.90;;;;;;5018726;28;21072;-74
2022/10/19 11:27:48;;;;;;;1.10;1.00;;;15.30;99.90;;;;;;5024252;28;20420;-72
2022/10/19 11:30:15;;;;;;;1.47;1.33;;;15.50;99.90;;;;;;5034524;28;20867;-72
2022/10/19 11:33:06;;;;;;;1.17;0.80;;;15.40;99.90;;;;;;5034010;28;20962;-71
2022/10/19 11:35:51;;;;;;;1.17;0.80;;;15.50;99.90;;;;;;5023291;28;20426;-72
2022/10/19 11:38:29;;;;;;;2.00;0.80;;;15.60;99.90;;;;;;5034220;28;20413;-72
2022/10/19 11:41:03;;;;;;;1.00;0.70;;;15.50;99.90;;;;;;5033875;28;20431;-74
2022/10/19 11:43:52;;;;;;;1.00;0.70;;;15.40;99.90;;;;;;5033725;28;20422;-72
2022/10/19 11:46:32;;;;;;;0.70;0.70;;;15.30;99.90;;;;;;5033983;28;20420;-72
2022/10/19 11:49:22;;;;;;;1.43;0.80;;;15.20;99.90;;;;;;5035025;28;20415;-73
2022/10/19 11:52:00;;;;;;;1.40;0.90;;;15.20;99.90;;;;;;5001972;28;20638;-72
2022/10/19 11:55:09;;;;;;;1.47;1.30;;;15.10;99.90;;;;;;5032614;28;20549;-71
2022/10/19 11:57:56;;;;;;;2.23;1.73;;;15.10;99.90;;;;;;5003743;28;20431;-72
2022/10/19 12:00:22;;;;;;;1.40;0.80;;;15.30;99.90;;;;;;5033991;28;20402;-72
2022/10/19 12:03:19;;;;;;;1.77;0.87;;;15.80;99.90;;;;;;5033152;28;20441;-72
2022/10/19 12:06:08;;;;;;;2.77;0.80;;;15.90;99.90;;;;;;5032275;28;20237;-72
2022/10/19 12:08:33;;;;;;;1.13;0.83;;;15.40;99.90;;;;;;5023682;28;20416;-73
2022/10/19 12:11:36;;;;;;;2.33;0.80;;;15.00;99.90;;;;;;5032816;28;20465;-73
2022/10/19 12:14:04;;;;;;;2.53;0.67;;;15.00;99.90;;;;;;5003931;28;20617;-71
2022/10/19 12:16:38;;;;;;;1.20;0.80;;;14.90;99.90;;;;;;5032227;28;20929;-72
2022/10/19 12:19:05;;;;;;;1.30;0.90;;;15.00;99.90;;;;;;5031891;28;20443;-72
2022/10/19 12:21:37;;;;;;;1.40;0.70;;;15.10;99.90;;;;;;5030650;28;20429;-72
2022/10/19 12:24:11;;;;;;;2.30;0.80;;;15.10;99.90;;;;;;5019153;28;20419;-72
2022/10/19 12:26:38;;;;;;;1.17;0.87;;;15.00;99.90;;;;;;5023365;28;20967;-71
2022/10/19 12:29:16;;;;;;;1.83;1.00;;;15.00;99.90;;;;;;5033973;28;21094;-73
2022/10/19 12:31:43;;;;;;;1.10;0.80;;;14.70;99.90;;;;;;5034083;28;20467;-72
2022/10/19 12:34:46;;;;;;;2.70;0.90;;;14.70;99.90;;;;;;5034271;28;20793;-71
2022/10/19 12:37:21;;;;;;;1.93;0.80;;;14.70;99.90;;;;;;5036152;28;20421;-73
2022/10/19 12:39:56;;;;;;;1.10;0.93;;;15.00;99.90;;;;;;5001746;28;20904;-73
2022/10/19 12:42:35;;;;;;;0.70;0.67;;;14.60;99.90;;;;;;5032613;28;20434;-71
2022/10/19 12:45:17;;;;;;;1.70;0.77;;;14.70;99.90;;;;;;5033963;28;20415;-73
2022/10/19 12:48:07;;;;;;;3.50;2.10;;;14.80;99.90;;;;;;5033768;28;20412;-73
2022/10/19 12:50:48;;;;;;;3.13;0.80;;;15.00;99.90;;;;;;5033817;28;20423;-74
2022/10/19 12:53:36;;;;;;;0.80;0.80;;;14.90;99.90;;;;;;5034661;28;20521;-72
2022/10/19 12:56:17;;;;;;;4.07;1.00;;;14.90;99.90;;;;;;5003816;28;20431;-72
2022/10/19 12:58:49;;;;;;;1.00;0.90;;;14.90;99.90;;;;;;5027313;28;20926;-72
2022/10/19 13:01:33;;;;;;;1.10;0.90;;;15.10;99.90;;;;;;5033903;28;20447;-72
2022/10/19 13:04:14;;;;;;;1.87;0.90;;;15.10;99.90;;;;;;5003899;28;20502;-72
2022/10/19 13:06:46;;;;;;;1.70;0.80;;;15.00;99.90;;;;;;5029564;28;20416;-72
2022/10/19 13:09:22;;;;;;;2.53;0.93;;;15.00;99.90;;;;;;5027915;28;20804;-72
2022/10/19 13:12:17;;;;;;;0.90;0.70;;;14.90;99.90;;;;;;5002274;28;20464;-73